createdAt,value
2023-03-14T00:00:54.304Z,25.66
2023-03-14T00:01:54.373Z,25.70
2023-03-14T00:02:54.533Z,25.67
2023-03-14T00:03:54.537Z,25.70
2023-03-14T00:04:54.593Z,25.68
2023-03-14T00:05:54.676Z,25.68
2023-03-14T00:06:54.781Z,25.68
2023-03-14T00:07:54.847Z,25.68
2023-03-14T00:08:54.965Z,25.68
2023-03-14T00:09:55.031Z,25.70
2023-03-14T00:10:55.066Z,25.68
2023-03-14T00:11:55.174Z,25.67
2023-03-14T00:12:55.325Z,25.70
2023-03-14T00:13:55.300Z,25.70
2023-03-14T00:14:55.376Z,25.67
2023-03-14T00:15:55.491Z,25.68
2023-03-14T00:16:55.522Z,25.67
2023-03-14T00:17:55.606Z,25.71
2023-03-14T00:18:55.686Z,25.67
2023-03-14T00:19:55.750Z,25.68
2023-03-14T00:20:55.813Z,25.68
2023-03-14T00:21:55.904Z,25.67
2023-03-14T00:22:55.991Z,25.70
2023-03-14T00:23:56.065Z,25.73
2023-03-14T00:24:56.137Z,25.71
2023-03-14T00:25:56.225Z,25.71
2023-03-14T00:26:56.292Z,25.71
2023-03-14T00:27:56.359Z,25.71
2023-03-14T00:28:56.438Z,25.73
2023-03-14T00:29:56.516Z,25.71
2023-03-14T00:30:56.641Z,25.71
2023-03-14T00:31:56.645Z,25.70
2023-03-14T00:32:56.824Z,25.71
2023-03-14T00:33:56.817Z,25.70
2023-03-14T00:34:56.887Z,25.71
2023-03-14T00:35:56.971Z,25.68
2023-03-14T00:36:57.045Z,25.70
2023-03-14T00:37:57.147Z,25.70
2023-03-14T00:38:57.197Z,25.71
2023-03-14T00:39:57.272Z,25.71
2023-03-14T00:40:57.369Z,25.70
2023-03-14T00:41:57.444Z,25.71
2023-03-14T00:42:57.498Z,25.70
2023-03-14T00:43:57.610Z,25.71
2023-03-14T00:44:57.643Z,25.73
2023-03-14T00:45:57.708Z,25.70
2023-03-14T00:46:57.847Z,25.71
2023-03-14T00:47:57.836Z,25.73
2023-03-14T00:48:57.955Z,25.74
2023-03-14T00:49:57.982Z,25.74
2023-03-14T00:50:58.082Z,25.73
2023-03-14T00:51:58.165Z,25.76
2023-03-14T00:52:58.222Z,25.71
2023-03-14T00:53:58.269Z,25.74
2023-03-14T00:54:58.335Z,25.74
2023-03-14T00:55:58.444Z,25.74
2023-03-14T00:56:58.495Z,25.76
2023-03-14T00:57:58.578Z,25.76
2023-03-14T00:58:58.637Z,25.73
2023-03-14T00:59:58.689Z,25.76
2023-03-14T01:00:58.792Z,25.74
2023-03-14T01:01:58.924Z,25.76
2023-03-14T01:02:58.993Z,25.74
2023-03-14T01:03:59.013Z,25.76
2023-03-14T01:04:59.074Z,25.74
2023-03-14T01:05:59.144Z,25.73
2023-03-14T01:06:59.218Z,25.73
2023-03-14T01:07:59.271Z,25.73
2023-03-14T01:08:59.353Z,25.76
2023-03-14T01:09:59.414Z,25.76
2023-03-14T01:10:59.461Z,25.77
2023-03-14T01:11:59.553Z,25.78
2023-03-14T01:12:59.595Z,25.77
2023-03-14T01:13:59.664Z,25.78
2023-03-14T01:14:59.732Z,25.78
2023-03-14T01:15:59.802Z,25.80
2023-03-14T01:16:59.849Z,25.83
2023-03-14T01:17:59.950Z,25.81
2023-03-14T01:19:00.019Z,25.80
2023-03-14T01:20:00.101Z,25.80
2023-03-14T01:21:00.124Z,25.80
2023-03-14T01:22:00.188Z,25.83
2023-03-14T01:23:00.286Z,25.81
2023-03-14T01:24:00.342Z,25.81
2023-03-14T01:25:00.419Z,25.80
2023-03-14T01:26:00.490Z,25.80
2023-03-14T01:27:00.577Z,25.77
2023-03-14T01:28:00.644Z,25.77
2023-03-14T01:29:00.728Z,25.73
2023-03-14T01:30:00.794Z,25.68
2023-03-14T01:31:00.924Z,25.68
2023-03-14T01:32:00.957Z,25.67
2023-03-14T01:33:01.016Z,25.67
2023-03-14T01:34:01.118Z,25.66
2023-03-14T01:35:01.190Z,25.66
2023-03-14T01:36:01.304Z,25.67
2023-03-14T01:37:01.359Z,25.63
2023-03-14T01:38:01.417Z,25.60
2023-03-14T01:39:01.535Z,25.58
2023-03-14T01:40:01.618Z,25.58
2023-03-14T01:41:01.669Z,25.60
2023-03-14T01:42:01.757Z,25.58
2023-03-14T01:43:01.841Z,25.57
2023-03-14T01:44:01.909Z,25.58
2023-03-14T01:45:01.988Z,25.57
2023-03-14T01:46:02.067Z,25.57
2023-03-14T01:47:02.167Z,25.54
2023-03-14T01:48:02.256Z,25.53
2023-03-14T01:49:02.332Z,25.50
2023-03-14T01:50:02.402Z,25.46
2023-03-14T01:51:02.457Z,25.46
2023-03-14T01:52:02.573Z,25.44
2023-03-14T01:53:02.687Z,25.40
2023-03-14T01:54:02.716Z,25.40
2023-03-14T01:55:02.794Z,25.40
2023-03-14T01:57:02.948Z,25.40
2023-03-14T01:58:03.079Z,25.43
2023-03-14T01:59:03.129Z,25.46
2023-03-14T02:00:03.201Z,25.44
2023-03-14T02:01:03.409Z,25.46
2023-03-14T02:02:03.357Z,25.47
2023-03-14T02:03:03.509Z,25.49
2023-03-14T02:06:03.673Z,25.51
2023-03-14T02:07:03.768Z,25.49
2023-03-14T02:08:03.810Z,25.46
2023-03-14T02:09:03.881Z,25.49
2023-03-14T02:10:03.962Z,25.47
2023-03-14T02:11:04.053Z,25.46
2023-03-14T02:12:04.141Z,25.47
2023-03-14T02:13:04.214Z,25.47
2023-03-14T02:14:04.255Z,25.49
2023-03-14T02:16:04.460Z,25.50
2023-03-14T02:17:04.546Z,25.50
2023-03-14T02:18:04.563Z,25.51
2023-03-14T02:19:04.670Z,25.50
2023-03-14T02:20:04.723Z,25.50
2023-03-14T02:31:05.518Z,25.56
2023-03-14T02:32:05.618Z,25.58
2023-03-14T02:33:05.676Z,25.60
2023-03-14T02:34:05.753Z,25.58
2023-03-14T02:35:05.831Z,25.63
2023-03-14T02:36:05.961Z,25.61
2023-03-14T02:37:05.974Z,25.66
2023-03-14T02:38:06.041Z,25.64
2023-03-14T02:39:06.099Z,25.64
2023-03-14T02:40:06.178Z,25.67
2023-03-14T02:41:06.259Z,25.67
2023-03-14T02:42:06.344Z,25.67
2023-03-14T02:43:06.386Z,25.67
2023-03-14T02:44:06.465Z,25.66
2023-03-14T02:45:06.547Z,25.66
2023-03-14T02:46:06.727Z,25.61
2023-03-14T02:47:06.729Z,25.61
2023-03-14T02:48:06.793Z,25.57
2023-03-14T02:49:06.920Z,25.53
2023-03-14T02:50:06.985Z,25.50
2023-03-14T02:51:07.026Z,25.47
2023-03-14T02:52:07.118Z,25.43
2023-03-14T02:53:07.173Z,25.43
2023-03-14T02:55:07.338Z,25.39
2023-03-14T02:56:07.453Z,25.34
2023-03-14T02:57:07.523Z,25.36
2023-03-14T02:58:07.614Z,25.34
2023-03-14T02:59:07.661Z,25.34
2023-03-14T03:00:07.739Z,25.37
2023-03-14T03:02:07.881Z,25.37
2023-03-14T03:03:08.078Z,25.37
2023-03-14T03:10:08.528Z,25.40
2023-03-14T03:11:08.576Z,25.40
2023-03-14T03:12:08.680Z,25.41
2023-03-14T03:14:08.853Z,25.41
2023-03-14T03:15:08.890Z,25.43
2023-03-14T03:17:09.092Z,25.43
2023-03-14T03:18:09.218Z,25.40
2023-03-14T03:20:09.297Z,25.40
2023-03-14T03:21:09.356Z,25.39
2023-03-14T03:48:11.540Z,25.23
2023-03-14T03:50:11.714Z,25.23
2023-03-14T03:51:11.768Z,25.22
2023-03-14T03:52:11.832Z,25.19
2023-03-14T04:35:15.064Z,24.89
2023-03-14T06:06:22.230Z,25.43
2023-03-14T06:08:22.245Z,25.44
2023-03-14T06:12:21.698Z,25.46
2023-03-14T06:13:21.746Z,25.46
2023-03-14T06:14:21.806Z,25.47
2023-03-14T06:15:21.882Z,25.47
2023-03-14T06:16:22.123Z,25.46
2023-03-14T06:17:22.059Z,25.46
2023-03-14T06:18:22.165Z,25.43
2023-03-14T06:19:22.233Z,25.47
2023-03-14T06:23:22.557Z,25.43
2023-03-14T06:30:23.125Z,25.33
2023-03-14T06:31:23.190Z,25.30
2023-03-14T06:32:23.773Z,25.30
2023-03-14T06:33:23.379Z,25.29
2023-03-14T06:34:23.440Z,25.29
2023-03-14T06:35:23.539Z,25.26
2023-03-14T06:36:23.649Z,25.32
2023-03-14T06:37:23.699Z,25.32
2023-03-14T06:38:23.782Z,25.30
2023-03-14T06:39:23.813Z,25.34
2023-03-14T06:40:23.896Z,25.32
2023-03-14T06:41:24.009Z,25.36
2023-03-14T06:42:24.118Z,25.39
2023-03-14T06:43:24.195Z,25.41
2023-03-14T06:44:24.224Z,25.43
2023-03-14T06:45:31.345Z,25.47
2023-03-14T06:46:24.423Z,25.47
2023-03-14T06:47:24.358Z,25.47
2023-03-14T06:48:24.842Z,25.49
2023-03-14T06:49:24.436Z,25.47
2023-03-14T06:50:24.488Z,25.50
2023-03-14T06:51:24.483Z,25.50
2023-03-14T06:52:24.561Z,25.49
2023-03-14T06:53:24.725Z,25.49
2023-03-14T06:54:24.621Z,25.49
2023-03-14T06:55:24.641Z,25.49
2023-03-14T06:56:24.669Z,25.50
2023-03-14T06:57:24.675Z,25.49
2023-03-14T06:58:24.756Z,25.49
2023-03-14T06:59:24.736Z,25.46
2023-03-14T07:00:24.787Z,25.47
2023-03-14T07:01:24.869Z,25.47
2023-03-14T07:02:36.064Z,25.49
2023-03-14T07:03:25.924Z,25.50
2023-03-14T07:04:25.044Z,25.50
2023-03-14T07:05:24.966Z,25.54
2023-03-14T07:06:24.977Z,25.58
2023-03-14T07:07:25.022Z,25.58
2023-03-14T07:08:25.052Z,25.60
2023-03-14T07:09:25.123Z,25.61
2023-03-14T07:10:25.100Z,25.60
2023-03-14T07:11:25.118Z,25.63
2023-03-14T07:12:25.164Z,25.61
2023-03-14T07:13:25.224Z,25.67
2023-03-14T07:14:25.223Z,25.68
2023-03-14T07:15:25.336Z,25.71
2023-03-14T07:16:25.388Z,25.71
2023-03-14T07:17:25.447Z,25.77
2023-03-14T07:18:25.755Z,25.80
2023-03-14T07:19:25.566Z,25.85
2023-03-14T07:20:25.571Z,25.88
2023-03-14T07:21:25.705Z,25.94
2023-03-14T07:22:25.691Z,25.95
2023-03-14T07:23:26.668Z,25.98
2023-03-14T07:24:25.776Z,26.00
2023-03-14T07:25:25.805Z,26.04
2023-03-14T07:26:25.850Z,26.05
2023-03-14T07:27:25.925Z,26.08
2023-03-14T07:28:26.296Z,26.07
2023-03-14T07:29:25.988Z,26.08
2023-03-14T07:30:26.043Z,26.09
2023-03-14T07:31:26.128Z,26.17
2023-03-14T07:32:26.148Z,26.17
2023-03-14T07:33:26.178Z,26.19
2023-03-14T07:34:26.197Z,26.27
2023-03-14T07:35:26.185Z,26.29
2023-03-14T07:36:26.313Z,26.31
2023-03-14T07:37:26.335Z,26.28
2023-03-14T07:38:26.358Z,26.27
2023-03-14T07:39:26.443Z,26.29
2023-03-14T07:40:26.440Z,26.31
2023-03-14T07:41:26.454Z,26.32
2023-03-14T07:42:26.476Z,26.34
2023-03-14T07:43:26.552Z,26.28
2023-03-14T07:44:26.608Z,26.25
2023-03-14T07:45:28.364Z,26.21
2023-03-14T07:46:26.762Z,26.19
2023-03-14T07:47:26.731Z,26.19
2023-03-14T07:48:27.273Z,26.15
2023-03-14T07:49:26.830Z,26.19
2023-03-14T07:50:26.958Z,26.19
2023-03-14T07:51:26.919Z,26.22
2023-03-14T07:52:27.078Z,26.24
2023-03-14T07:53:27.043Z,26.27
2023-03-14T07:54:27.052Z,26.29
2023-03-14T07:55:27.045Z,26.29
2023-03-14T07:56:27.146Z,26.34
2023-03-14T07:57:27.171Z,26.34
2023-03-14T07:58:27.214Z,26.38
2023-03-14T07:59:27.213Z,26.41
2023-03-14T08:00:27.309Z,26.45
2023-03-14T08:01:27.376Z,26.45
2023-03-14T08:02:27.365Z,26.49
2023-03-14T08:03:27.515Z,26.52
2023-03-14T08:04:27.750Z,26.53
2023-03-14T08:05:27.467Z,26.58
2023-03-14T08:06:27.540Z,26.60
2023-03-14T08:07:27.576Z,26.60
2023-03-14T08:08:27.617Z,26.68
2023-03-14T08:09:27.696Z,26.68
2023-03-14T08:10:27.771Z,26.73
2023-03-14T08:11:27.787Z,26.73
2023-03-14T08:12:27.820Z,26.75
2023-03-14T08:13:27.887Z,26.76
2023-03-14T08:14:28.009Z,26.76
2023-03-14T08:15:28.017Z,26.79
2023-03-14T08:16:28.179Z,26.79
2023-03-14T08:17:28.981Z,26.82
2023-03-14T08:18:28.204Z,26.82
2023-03-14T08:19:28.282Z,26.85
2023-03-14T08:20:28.298Z,26.86
2023-03-14T08:21:28.395Z,26.87
2023-03-14T08:22:28.488Z,26.90
2023-03-14T08:23:28.504Z,26.90
2023-03-14T08:24:28.867Z,26.90
2023-03-14T08:25:28.606Z,26.90
2023-03-14T08:26:28.652Z,26.86
2023-03-14T08:27:28.710Z,26.87
2023-03-14T08:28:28.770Z,26.83
2023-03-14T08:29:28.773Z,26.83
2023-03-14T08:30:28.843Z,26.80
2023-03-14T08:31:28.945Z,26.78
2023-03-14T08:32:28.971Z,26.78
2023-03-14T08:33:28.964Z,26.75
2023-03-14T08:34:29.270Z,26.78
2023-03-14T08:35:29.005Z,26.80
2023-03-14T08:36:29.119Z,26.79
2023-03-14T08:37:29.130Z,26.79
2023-03-14T08:38:29.153Z,26.80
2023-03-14T08:39:29.278Z,26.82
2023-03-14T08:49:29.906Z,26.62
2023-03-14T09:23:31.698Z,27.24
2023-03-14T09:24:31.746Z,27.26
2023-03-14T09:25:31.792Z,27.30
2023-03-14T09:26:31.875Z,27.31
2023-03-14T09:27:31.941Z,27.34
2023-03-14T09:28:32.003Z,27.34
2023-03-14T09:29:32.027Z,27.37
2023-03-14T09:30:32.305Z,27.34
2023-03-14T09:31:32.184Z,27.40
2023-03-14T09:32:32.250Z,27.41
2023-03-14T09:33:32.205Z,27.40
2023-03-14T09:34:32.243Z,27.38
2023-03-14T09:35:32.354Z,27.36
2023-03-14T09:36:32.342Z,27.36
2023-03-14T09:37:32.352Z,27.40
2023-03-14T09:38:32.500Z,27.40
2023-03-14T09:39:32.472Z,27.40
2023-03-14T09:40:32.548Z,27.41
2023-03-14T09:41:32.595Z,27.44
2023-03-14T09:42:32.638Z,27.43
2023-03-14T09:43:32.704Z,27.41
2023-03-14T09:44:32.755Z,27.44
2023-03-14T09:45:32.854Z,27.41
2023-03-14T09:46:32.817Z,27.37
2023-03-14T09:47:32.932Z,27.33
2023-03-14T09:48:32.990Z,27.36
2023-03-14T09:49:33.014Z,27.34
2023-03-14T09:50:33.311Z,27.31
2023-03-14T09:51:33.168Z,27.31
2023-03-14T09:52:33.184Z,27.30
2023-03-14T09:53:33.278Z,27.30
2023-03-14T09:54:33.284Z,27.31
2023-03-14T09:55:35.557Z,27.29
2023-03-14T09:56:33.375Z,27.24
2023-03-14T10:00:33.849Z,27.17
2023-03-14T10:01:33.518Z,27.20
2023-03-14T10:02:33.438Z,27.18
2023-03-14T10:03:33.444Z,27.14
2023-03-14T10:04:33.528Z,27.17
2023-03-14T10:05:33.818Z,27.20
2023-03-14T10:06:33.505Z,27.18
2023-03-14T10:07:33.503Z,27.21
2023-03-14T10:08:33.536Z,27.11
2023-03-14T10:09:33.525Z,27.11
2023-03-14T10:10:34.312Z,27.10
2023-03-14T10:11:33.552Z,27.07
2023-03-14T10:12:33.628Z,27.07
2023-03-14T10:13:33.628Z,27.01
2023-03-14T10:14:33.620Z,27.00
2023-03-14T10:15:34.321Z,26.99
2023-03-14T10:16:33.705Z,26.94
2023-03-14T10:17:33.702Z,26.90
2023-03-14T10:18:33.735Z,26.86
2023-03-14T10:19:33.731Z,26.82
2023-03-14T10:20:33.810Z,26.80
2023-03-14T10:21:33.767Z,26.80
2023-03-14T10:22:33.805Z,26.76
2023-03-14T10:23:33.891Z,26.72
2023-03-14T10:24:33.812Z,26.72
2023-03-14T10:25:34.305Z,26.69
2023-03-14T10:26:33.913Z,26.70
2023-03-14T10:28:33.920Z,26.69
2023-03-14T10:29:33.934Z,26.69
2023-03-14T10:30:34.354Z,26.70
2023-03-14T10:31:33.994Z,26.72
2023-03-14T10:32:34.020Z,26.73
2023-03-14T10:33:34.003Z,26.75
2023-03-14T10:34:34.040Z,26.75
2023-03-14T10:36:34.082Z,26.78
2023-03-14T10:37:34.092Z,26.80
2023-03-14T10:39:12.053Z,26.73
2023-03-14T10:40:12.059Z,26.75
2023-03-14T10:42:12.097Z,26.70
2023-03-14T10:43:12.321Z,26.70
2023-03-14T10:44:12.192Z,26.63
2023-03-14T10:45:12.196Z,26.60
2023-03-14T11:01:12.709Z,26.55
2023-03-14T11:26:13.440Z,26.00
2023-03-14T14:22:21.690Z,26.99
2023-03-14T14:23:21.807Z,27.00
2023-03-14T14:24:21.735Z,27.03
2023-03-14T14:25:21.864Z,27.00
2023-03-14T14:26:22.440Z,27.01
2023-03-14T14:27:21.934Z,27.00
2023-03-14T14:28:21.998Z,27.00
2023-03-14T14:29:22.100Z,26.99
2023-03-14T14:30:22.129Z,27.01
2023-03-14T14:31:22.331Z,27.03
2023-03-14T14:32:22.259Z,27.00
2023-03-14T14:33:22.281Z,26.99
2023-03-14T14:34:22.309Z,27.01
2023-03-14T14:35:22.415Z,26.99
2023-03-14T14:36:22.401Z,27.00
2023-03-14T14:37:22.419Z,27.01
2023-03-14T14:38:22.488Z,27.01
2023-03-14T14:39:22.566Z,27.00
2023-03-14T14:40:22.629Z,27.00
2023-03-14T14:41:22.724Z,27.00
2023-03-14T14:42:22.715Z,27.01
2023-03-14T14:43:22.774Z,26.99
2023-03-14T14:44:22.826Z,27.00
2023-03-14T17:23:31.704Z,26.94
2023-03-14T17:24:31.716Z,26.94
2023-03-14T17:25:31.763Z,26.94
2023-03-14T17:26:31.816Z,26.93
2023-03-14T17:27:31.913Z,26.94
2023-03-14T17:28:31.914Z,26.93
2023-03-14T17:29:31.927Z,26.94
2023-03-14T17:30:31.969Z,26.92
2023-03-14T17:31:32.052Z,26.93
2023-03-14T17:32:32.777Z,26.93
2023-03-14T17:33:32.049Z,26.92
2023-03-14T17:34:32.109Z,26.89
2023-03-14T17:35:32.181Z,26.89
2023-03-14T17:36:32.203Z,26.89
2023-03-14T17:37:32.226Z,26.86
2023-03-14T17:38:32.278Z,26.87
2023-03-14T17:39:32.285Z,26.85
2023-03-14T17:40:32.356Z,26.83
2023-03-14T17:41:32.350Z,26.80
2023-03-14T17:42:32.363Z,26.85
2023-03-14T17:43:32.424Z,26.80
2023-03-14T17:44:32.471Z,26.80
2023-03-14T17:45:32.470Z,26.82
2023-03-14T17:46:32.594Z,26.79
2023-03-14T17:47:32.566Z,26.79
2023-03-14T17:48:32.649Z,26.78
2023-03-14T17:49:32.660Z,26.76
2023-03-14T17:50:32.749Z,26.76
2023-03-14T17:51:32.782Z,26.78
2023-03-14T17:52:32.765Z,26.76
2023-03-14T17:53:32.837Z,26.73
2023-03-14T17:54:32.835Z,26.76
2023-03-14T17:55:32.915Z,26.73
2023-03-14T17:56:32.974Z,26.76
2023-03-14T17:57:32.975Z,26.75
2023-03-14T17:58:33.040Z,26.73
2023-03-14T17:59:33.083Z,26.75
2023-03-14T18:00:33.199Z,26.73
2023-03-14T18:01:33.243Z,26.72
2023-03-14T18:02:33.314Z,26.72
2023-03-14T18:03:33.233Z,26.73
2023-03-14T18:04:33.313Z,26.70
2023-03-14T18:05:33.284Z,26.70
2023-03-14T18:06:33.357Z,26.69
2023-03-14T18:07:33.350Z,26.70
2023-03-14T18:08:33.409Z,26.68
2023-03-14T18:09:33.434Z,26.68
2023-03-14T18:10:33.439Z,26.66
2023-03-14T18:11:33.472Z,26.69
2023-03-14T18:12:33.518Z,26.68
2023-03-14T18:13:33.577Z,26.69
2023-03-14T18:14:33.576Z,26.69
2023-03-14T18:15:33.626Z,26.66
2023-03-14T18:16:33.772Z,26.68
2023-03-14T18:17:33.748Z,26.66
2023-03-14T18:18:33.780Z,26.68
2023-03-14T18:19:33.823Z,26.69
2023-03-14T18:20:33.909Z,26.68
2023-03-14T18:21:33.954Z,26.68
2023-03-14T18:22:34.006Z,26.69
2023-03-14T18:23:34.045Z,26.69
2023-03-14T18:24:34.121Z,26.69
2023-03-14T18:25:34.076Z,26.69
2023-03-14T18:26:34.135Z,26.70
2023-03-14T18:27:34.161Z,26.70
2023-03-14T18:28:34.238Z,26.68
2023-03-14T18:29:34.278Z,26.68
2023-03-14T18:30:34.294Z,26.69
2023-03-14T18:31:34.388Z,26.70
2023-03-14T18:32:34.488Z,26.69
2023-03-14T18:33:34.437Z,26.70
2023-03-14T18:34:34.466Z,26.68
2023-03-14T18:35:34.575Z,26.69
2023-03-14T18:36:34.547Z,26.69
2023-03-14T18:37:34.610Z,26.68
2023-03-14T18:38:34.694Z,26.70
2023-03-14T18:39:34.746Z,26.70
2023-03-14T18:40:34.856Z,26.69
2023-03-14T18:41:34.776Z,26.69
2023-03-14T18:42:34.847Z,26.72
2023-03-14T18:43:35.101Z,26.69
2023-03-14T18:44:34.944Z,26.70
2023-03-14T18:45:34.961Z,26.69
2023-03-14T18:46:35.029Z,26.69
2023-03-14T18:47:35.112Z,26.66
2023-03-14T18:48:35.199Z,26.69
2023-03-14T18:49:36.166Z,26.68
2023-03-14T18:50:35.217Z,26.68
2023-03-14T18:51:35.230Z,26.69
2023-03-14T18:52:35.283Z,26.68
2023-03-14T18:53:35.374Z,26.70
2023-03-14T18:54:35.406Z,26.69
2023-03-14T18:55:35.445Z,26.69
2023-03-14T18:56:35.465Z,26.66
2023-03-14T18:57:35.475Z,26.69
2023-03-14T18:58:35.530Z,26.69
2023-03-14T18:59:35.622Z,26.68
2023-03-14T19:00:35.676Z,26.69
2023-03-14T19:01:35.696Z,26.68
2023-03-14T19:02:35.816Z,26.69
2023-03-14T19:03:35.789Z,26.69
2023-03-14T19:04:35.805Z,26.69
2023-03-14T19:05:35.891Z,26.68
2023-03-14T19:06:35.975Z,26.68
2023-03-14T19:07:35.954Z,26.68
2023-03-14T19:08:36.006Z,26.68
2023-03-14T19:09:36.062Z,26.66
2023-03-14T19:10:36.093Z,26.68
2023-03-14T19:11:36.161Z,26.63
2023-03-14T19:12:36.187Z,26.66
2023-03-14T19:13:36.242Z,26.64
2023-03-14T19:14:36.241Z,26.66
2023-03-14T19:15:36.320Z,26.68
2023-03-14T19:16:36.411Z,26.66
2023-03-14T19:17:36.359Z,26.64
2023-03-14T19:18:36.433Z,26.68
2023-03-14T19:19:36.489Z,26.64
2023-03-14T19:20:36.533Z,26.66
2023-03-14T19:21:36.529Z,26.66
2023-03-14T19:22:36.584Z,26.66
2023-03-14T19:23:36.610Z,26.64
2023-03-14T19:24:36.684Z,26.64
2023-03-14T19:25:36.696Z,26.64
2023-03-14T19:26:36.739Z,26.64
2023-03-14T19:27:37.049Z,26.64
2023-03-14T19:28:36.838Z,26.63
2023-03-14T19:29:36.925Z,26.63
2023-03-14T19:31:37.041Z,26.63
2023-03-14T19:32:37.058Z,26.63
2023-03-14T19:57:38.119Z,26.60
2023-03-14T20:21:39.121Z,26.59
2023-03-14T20:22:39.120Z,26.60
2023-03-14T20:23:39.171Z,26.60
2023-03-14T20:24:39.204Z,26.60
2023-03-14T20:25:39.248Z,26.59
2023-03-14T20:26:39.299Z,26.60
2023-03-14T20:27:39.317Z,26.60
2023-03-14T20:28:39.377Z,26.59
2023-03-14T20:29:39.436Z,26.59
2023-03-14T20:30:39.521Z,26.60
2023-03-14T20:31:39.481Z,26.59
2023-03-14T20:43:39.980Z,26.59
2023-03-14T20:44:40.060Z,26.59
2023-03-14T20:45:40.076Z,26.59
2023-03-14T20:46:40.212Z,26.62
2023-03-14T20:47:40.149Z,26.60
2023-03-14T20:48:40.188Z,26.58
2023-03-14T20:49:40.191Z,26.60
2023-03-14T20:50:40.233Z,26.59
2023-03-14T20:51:40.288Z,26.60
2023-03-14T20:52:40.376Z,26.59
2023-03-14T21:23:41.671Z,26.58
2023-03-14T21:24:41.751Z,26.59
2023-03-14T21:25:44.123Z,26.58
2023-03-14T21:26:41.817Z,26.58
2023-03-14T21:27:41.834Z,26.56
2023-03-14T21:28:41.846Z,26.58
2023-03-14T21:29:41.850Z,26.58
2023-03-14T21:30:41.877Z,26.58
2023-03-14T21:31:41.911Z,26.58
2023-03-14T21:32:41.916Z,26.56
2023-03-14T21:33:41.950Z,26.59
2023-03-14T21:34:41.946Z,26.56
2023-03-14T21:35:41.986Z,26.58
2023-03-14T21:36:42.006Z,26.56
2023-03-14T21:37:42.017Z,26.59
2023-03-14T21:38:42.021Z,26.58
2023-03-14T21:39:42.046Z,26.59
2023-03-14T21:40:42.066Z,26.58
2023-03-14T21:41:42.087Z,26.56
2023-03-14T21:42:42.101Z,26.59
2023-03-14T21:43:42.423Z,26.56
2023-03-14T21:44:42.118Z,26.56
2023-03-14T21:45:42.182Z,26.58
2023-03-14T21:46:42.226Z,26.58
2023-03-14T21:47:42.160Z,26.58
2023-03-14T21:48:42.167Z,26.58
2023-03-14T21:49:42.162Z,26.60
2023-03-14T21:50:42.177Z,26.58
2023-03-14T21:51:42.234Z,26.59
2023-03-14T21:55:42.290Z,26.58
2023-03-14T21:56:42.308Z,26.56
2023-03-14T21:57:42.313Z,26.56
2023-03-14T21:58:42.350Z,26.56
2023-03-14T21:59:42.357Z,26.56
2023-03-14T22:00:42.357Z,26.58
2023-03-14T22:01:42.576Z,26.58
2023-03-14T22:02:49.642Z,26.55
2023-03-14T22:03:43.472Z,26.58
2023-03-14T22:04:42.456Z,26.55
2023-03-14T22:05:42.470Z,26.56
2023-03-14T22:06:42.510Z,26.55
2023-03-14T22:07:42.499Z,26.58
2023-03-14T22:08:42.601Z,26.55
2023-03-14T22:09:42.514Z,26.56
2023-03-14T22:10:42.539Z,26.58
2023-03-14T22:11:42.576Z,26.58
2023-03-14T22:12:42.550Z,26.56
2023-03-14T22:13:42.613Z,26.56
2023-03-14T22:14:42.635Z,26.58
2023-03-14T22:15:45.187Z,26.58
2023-03-14T22:16:42.640Z,26.58
2023-03-14T22:17:42.715Z,26.55
2023-03-14T22:18:42.695Z,26.56
2023-03-14T22:19:42.670Z,26.58
2023-03-14T22:20:42.695Z,26.59
2023-03-14T22:21:42.817Z,26.56
2023-03-14T22:22:42.768Z,26.58
2023-03-14T22:23:42.741Z,26.58
2023-03-14T22:24:42.755Z,26.58
2023-03-14T22:25:42.807Z,26.58
2023-03-14T22:26:42.803Z,26.58
2023-03-14T22:27:42.810Z,26.56
2023-03-14T22:28:42.850Z,26.58
2023-03-14T22:29:42.863Z,26.56
2023-03-14T22:30:42.858Z,26.56
2023-03-14T22:31:43.016Z,26.55
2023-03-14T22:32:42.959Z,26.55
2023-03-14T22:33:42.925Z,26.56
2023-03-14T22:34:42.929Z,26.58
2023-03-14T22:35:42.961Z,26.55
2023-03-14T22:36:42.980Z,26.56
2023-03-14T22:37:43.041Z,26.58
2023-03-14T22:38:43.019Z,26.55
2023-03-14T22:39:43.045Z,26.55
2023-03-14T22:40:43.069Z,26.55
2023-03-14T22:41:43.080Z,26.56
2023-03-14T22:42:43.077Z,26.56
2023-03-14T22:43:43.130Z,26.58
2023-03-14T22:44:43.129Z,26.58
2023-03-14T22:45:43.169Z,26.53
2023-03-14T22:46:43.158Z,26.56
2023-03-14T22:47:43.200Z,26.55
2023-03-14T22:48:43.225Z,26.59
2023-03-14T22:49:43.211Z,26.55
2023-03-14T22:50:43.249Z,26.56
2023-03-14T22:51:43.236Z,26.56
2023-03-14T22:52:43.276Z,26.58
2023-03-14T22:53:43.293Z,26.53
2023-03-14T22:54:43.302Z,26.58
2023-03-14T22:55:43.319Z,26.55
2023-03-14T22:56:43.346Z,26.55
2023-03-14T22:57:43.345Z,26.56
2023-03-14T22:58:43.378Z,26.56
2023-03-14T22:59:43.391Z,26.58
2023-03-14T23:00:43.457Z,26.53
2023-03-14T23:01:43.435Z,26.55
2023-03-14T23:02:43.472Z,26.55
2023-03-14T23:03:43.464Z,26.55
2023-03-14T23:04:43.505Z,26.56
2023-03-14T23:05:43.501Z,26.55
2023-03-14T23:06:43.506Z,26.59
2023-03-14T23:07:43.548Z,26.56
2023-03-14T23:08:43.580Z,26.56
2023-03-14T23:09:43.565Z,26.53
2023-03-14T23:10:43.649Z,26.56
2023-03-14T23:11:43.615Z,26.56
2023-03-14T23:12:43.647Z,26.55
2023-03-14T23:13:43.673Z,26.56
2023-03-14T23:14:43.749Z,26.56
2023-03-14T23:15:43.727Z,26.55
2023-03-14T23:16:43.820Z,26.56
2023-03-14T23:17:43.768Z,26.56
2023-03-14T23:18:43.809Z,26.53
2023-03-14T23:19:43.793Z,26.55
2023-03-14T23:20:43.824Z,26.55
2023-03-14T23:21:43.889Z,26.55
2023-03-14T23:22:43.898Z,26.53
2023-03-14T23:23:43.977Z,26.56
2023-03-14T23:24:43.913Z,26.53
2023-03-14T23:25:52.966Z,26.55
2023-03-14T23:26:44.976Z,26.53
2023-03-14T23:27:44.030Z,26.56
2023-03-14T23:28:43.998Z,26.53
2023-03-14T23:29:44.041Z,26.58
2023-03-14T23:30:44.110Z,26.53
2023-03-14T23:31:44.115Z,26.58
2023-03-14T23:32:44.162Z,26.56
2023-03-14T23:33:44.710Z,26.55
2023-03-14T23:34:44.156Z,26.55
2023-03-14T23:35:44.210Z,26.55
2023-03-14T23:36:44.202Z,26.55
2023-03-14T23:37:44.229Z,26.55
2023-03-14T23:38:44.241Z,26.55
2023-03-14T23:39:44.276Z,26.55
2023-03-14T23:40:44.391Z,26.56
2023-03-14T23:41:44.332Z,26.55
2023-03-14T23:42:44.340Z,26.55
2023-03-14T23:43:44.346Z,26.55
2023-03-14T23:44:44.343Z,26.56
2023-03-14T23:45:44.398Z,26.58
2023-03-14T23:46:44.381Z,26.55
2023-03-14T23:47:44.424Z,26.55
2023-03-14T23:48:44.457Z,26.55
2023-03-14T23:49:44.494Z,26.58
2023-03-14T23:50:45.149Z,26.53
2023-03-14T23:51:44.501Z,26.56
2023-03-14T23:52:44.542Z,26.56
2023-03-14T23:53:44.586Z,26.56
2023-03-14T23:54:44.612Z,26.56
2023-03-14T23:55:44.671Z,26.56
2023-03-14T23:56:44.740Z,26.55
2023-03-14T23:57:44.749Z,26.56
2023-03-14T23:58:44.803Z,26.55
2023-03-14T23:59:44.852Z,26.55
